createdAt,value
2023-05-08T00:01:00.802Z,3.72
2023-05-08T00:03:31.377Z,4.07
2023-05-08T00:09:27.238Z,4.03
2023-05-08T00:12:12.193Z,4.25
2023-05-08T00:14:43.009Z,3.95
2023-05-08T00:17:29.578Z,4.22
2023-05-08T00:20:04.923Z,3.70
2023-05-08T00:25:33.910Z,4.30
2023-05-08T00:28:03.216Z,4.05
2023-05-08T00:33:32.513Z,4.28
2023-05-08T00:38:54.329Z,4.45
2023-05-08T00:41:29.062Z,4.40
2023-05-08T00:44:19.996Z,4.60
2023-05-08T00:46:58.404Z,4.30
2023-05-08T00:49:58.970Z,4.47
2023-05-08T00:52:35.922Z,4.35
2023-05-08T00:55:06.479Z,4.05
2023-05-08T00:57:48.253Z,4.25
2023-05-08T01:00:29.747Z,4.30
2023-05-08T01:03:10.457Z,4.53
2023-05-08T01:05:41.131Z,4.88
2023-05-08T01:08:14.646Z,4.35
2023-05-08T01:11:13.569Z,5.18
2023-05-08T01:20:01.815Z,4.10
2023-05-08T01:23:01.266Z,4.68
2023-05-08T01:29:38.182Z,4.80
2023-05-08T01:32:25.162Z,4.45
2023-05-08T01:37:59.820Z,4.93
2023-05-08T01:41:31.750Z,4.80
2023-05-08T01:44:54.954Z,4.55
2023-05-08T01:50:21.657Z,4.55
2023-05-08T01:53:01.746Z,4.72
2023-05-08T01:59:06.020Z,4.50
2023-05-08T02:01:41.460Z,4.97
2023-05-08T02:10:57.750Z,4.72
2023-05-08T02:13:32.664Z,4.80
2023-05-08T02:20:00.918Z,4.93
2023-05-08T02:23:01.792Z,5.10
2023-05-08T02:25:36.070Z,4.97
2023-05-08T02:28:29.946Z,5.03
2023-05-08T02:37:10.164Z,5.20
2023-05-08T02:39:53.440Z,4.80
2023-05-08T02:45:08.840Z,4.55
2023-05-08T02:52:01.780Z,4.50
2023-05-08T02:54:45.931Z,4.55
2023-05-08T02:57:42.123Z,4.78
2023-05-08T03:03:47.704Z,4.53
2023-05-08T03:06:27.024Z,4.82
2023-05-08T03:09:30.817Z,5.40
2023-05-08T03:15:35.471Z,5.18
2023-05-08T03:18:23.734Z,4.93
2023-05-08T03:21:26.127Z,4.60
2023-05-08T03:24:26.667Z,4.90
2023-05-08T03:27:00.852Z,4.75
2023-05-08T03:29:45.780Z,5.20
2023-05-08T03:32:46.247Z,4.93
2023-05-08T03:35:33.438Z,5.22
2023-05-08T03:38:19.968Z,5.38
2023-05-08T03:40:55.797Z,5.30
2023-05-08T03:43:23.678Z,5.18
2023-05-08T03:48:55.791Z,5.57
2023-05-08T03:51:24.182Z,5.50
2023-05-08T03:57:00.294Z,5.15
2023-05-08T03:59:46.413Z,5.18
2023-05-08T04:02:57.178Z,5.30
2023-05-08T04:05:50.974Z,5.38
2023-05-08T04:11:31.881Z,5.60
2023-05-08T04:14:12.640Z,5.28
2023-05-08T04:16:59.670Z,5.28
2023-05-08T04:25:33.564Z,5.25
2023-05-08T04:28:49.855Z,5.80
2023-05-08T04:32:00.457Z,5.28
2023-05-08T04:34:39.529Z,5.20
2023-05-08T04:40:25.525Z,5.00
2023-05-08T04:43:06.102Z,5.63
2023-05-08T04:45:35.816Z,5.13
2023-05-08T04:48:13.451Z,5.10
2023-05-08T04:51:07.911Z,5.57
2023-05-08T04:53:37.498Z,5.00
2023-05-08T04:56:47.886Z,5.20
2023-05-08T04:59:43.000Z,5.35
2023-05-08T05:02:10.701Z,5.15
2023-05-08T05:04:56.995Z,5.20
2023-05-08T05:07:37.293Z,5.50
2023-05-08T05:10:17.282Z,5.50
2023-05-08T05:12:53.665Z,5.60
2023-05-08T05:19:05.344Z,5.78
2023-05-08T05:24:32.723Z,5.55
2023-05-08T05:27:01.059Z,5.50
2023-05-08T05:29:39.190Z,5.70
2023-05-08T05:35:25.777Z,5.63
2023-05-08T05:41:20.389Z,5.53
2023-05-08T05:44:26.614Z,6.00
2023-05-08T05:47:29.010Z,5.70
2023-05-08T05:50:22.108Z,5.45
2023-05-08T05:53:09.433Z,5.25
2023-05-08T05:55:47.287Z,5.57
2023-05-08T05:58:54.747Z,5.55
2023-05-08T06:01:39.448Z,5.47
2023-05-08T06:04:11.867Z,5.43
2023-05-08T06:07:16.687Z,5.32
2023-05-08T06:10:22.940Z,5.72
2023-05-08T06:13:01.848Z,5.65
2023-05-08T06:18:20.522Z,5.65
2023-05-08T06:21:12.819Z,5.25
2023-05-08T06:24:09.203Z,5.43
2023-05-08T06:26:36.704Z,4.82
2023-05-08T06:29:07.203Z,4.53
2023-05-08T06:31:59.691Z,5.32
2023-05-08T06:34:32.586Z,5.13
2023-05-08T06:36:59.547Z,5.93
2023-05-08T06:39:54.617Z,5.85
2023-05-08T06:42:33.040Z,6.03
2023-05-08T06:47:47.170Z,5.18
2023-05-08T06:50:16.960Z,5.07
2023-05-08T06:52:44.002Z,5.90
2023-05-08T06:55:11.483Z,5.88
2023-05-08T06:57:39.126Z,6.22
2023-05-08T07:00:12.750Z,5.65
2023-05-08T07:02:40.059Z,6.10
2023-05-08T07:05:10.964Z,5.18
2023-05-08T07:07:40.185Z,6.45
2023-05-08T07:10:14.427Z,7.55
2023-05-08T07:12:48.005Z,7.72
2023-05-08T07:15:25.559Z,7.35
2023-05-08T07:17:58.198Z,5.93
2023-05-08T07:20:32.776Z,7.38
2023-05-08T07:23:00.460Z,7.72
2023-05-08T07:25:29.835Z,6.20
2023-05-08T07:28:01.029Z,5.30
2023-05-08T07:30:33.526Z,5.93
2023-05-08T07:33:04.734Z,5.28
2023-05-08T07:35:31.915Z,4.78
2023-05-08T07:38:01.004Z,5.20
2023-05-08T07:40:45.337Z,5.30
2023-05-08T07:43:34.616Z,5.40
2023-05-08T07:46:08.963Z,4.90
2023-05-08T07:48:38.713Z,5.00
2023-05-08T07:51:10.044Z,5.15
2023-05-08T07:53:44.257Z,5.97
2023-05-08T07:56:11.591Z,6.55
2023-05-08T07:58:50.492Z,6.18
2023-05-08T08:01:21.285Z,5.05
2023-05-08T08:04:01.275Z,5.40
2023-05-08T08:06:29.796Z,6.35
2023-05-08T08:09:20.427Z,5.95
2023-05-08T08:11:51.877Z,5.20
2023-05-08T08:14:25.957Z,6.70
2023-05-08T08:17:17.197Z,6.78
2023-05-08T08:19:57.456Z,5.53
2023-05-08T08:22:35.266Z,5.75
2023-05-08T08:25:31.083Z,4.90
2023-05-08T08:28:12.288Z,4.65
2023-05-08T08:30:40.005Z,4.93
2023-05-08T08:33:10.275Z,4.78
2023-05-08T08:38:07.782Z,4.53
2023-05-08T08:40:47.844Z,4.53
2023-05-08T08:43:15.464Z,4.75
2023-05-08T08:45:53.830Z,5.05
2023-05-08T08:48:28.966Z,5.22
2023-05-08T08:51:22.157Z,4.43
2023-05-08T08:57:01.139Z,4.75
2023-05-08T08:59:32.684Z,5.40
2023-05-08T09:02:23.432Z,4.90
2023-05-08T09:04:56.079Z,4.85
2023-05-08T09:07:35.201Z,5.63
2023-05-08T09:10:19.161Z,5.13
2023-05-08T09:13:45.886Z,4.63
2023-05-08T09:16:22.288Z,5.35
2023-05-08T09:18:49.249Z,4.82
2023-05-08T09:21:23.585Z,5.30
2023-05-08T09:24:12.731Z,4.82
2023-05-08T09:26:49.798Z,4.72
2023-05-08T09:29:51.725Z,3.97
2023-05-08T09:35:59.021Z,4.82
2023-05-08T09:39:03.107Z,5.00
2023-05-08T09:41:53.342Z,5.13
2023-05-08T09:44:29.403Z,4.35
2023-05-08T09:47:19.223Z,3.85
2023-05-08T09:50:21.018Z,3.97
2023-05-08T09:52:54.274Z,4.57
2023-05-08T09:55:30.971Z,5.60
2023-05-08T09:58:23.913Z,5.22
2023-05-08T10:01:40.483Z,4.32
2023-05-08T10:07:34.563Z,5.55
2023-05-08T10:10:15.915Z,5.25
2023-05-08T10:12:43.948Z,4.80
2023-05-08T10:15:18.965Z,5.13
2023-05-08T10:21:10.402Z,4.47
2023-05-08T10:24:25.125Z,4.55
2023-05-08T10:27:14.117Z,4.10
2023-05-08T10:29:55.730Z,3.72
2023-05-08T10:32:24.108Z,4.03
2023-05-08T10:35:04.572Z,3.55
2023-05-08T10:37:35.305Z,4.20
2023-05-08T10:40:22.476Z,4.63
2023-05-08T10:43:24.165Z,3.85
2023-05-08T10:45:56.055Z,3.67
2023-05-08T10:55:04.386Z,4.07
2023-05-08T10:57:37.102Z,4.53
2023-05-08T11:00:18.789Z,4.55
2023-05-08T11:03:23.565Z,4.38
2023-05-08T11:06:35.474Z,4.28
2023-05-08T11:09:09.193Z,4.95
2023-05-08T11:11:46.125Z,4.53
2023-05-08T11:14:59.909Z,5.03
2023-05-08T11:17:42.453Z,4.43
2023-05-08T11:20:19.801Z,4.63
2023-05-08T11:23:05.995Z,4.43
2023-05-08T11:25:48.744Z,4.65
2023-05-08T11:28:17.375Z,3.90
2023-05-08T11:30:54.511Z,4.03
2023-05-08T11:33:43.713Z,4.07
2023-05-08T11:36:23.517Z,3.85
2023-05-08T11:39:44.971Z,4.05
2023-05-08T11:45:50.343Z,4.60
2023-05-08T11:49:07.929Z,3.85
2023-05-08T11:54:42.166Z,4.10
2023-05-08T11:57:14.978Z,4.32
2023-05-08T12:01:11.537Z,3.85
2023-05-08T12:04:22.171Z,4.13
2023-05-08T12:06:11.738Z,3.90
2023-05-08T12:08:44.977Z,4.85
2023-05-08T12:11:26.312Z,4.50
2023-05-08T12:13:55.160Z,4.20
2023-05-08T12:16:40.708Z,4.43
2023-05-08T12:19:21.834Z,4.07
2023-05-08T12:25:03.426Z,3.90
2023-05-08T12:27:40.608Z,4.15
2023-05-08T12:30:18.742Z,4.10
2023-05-08T12:32:46.702Z,4.30
2023-05-08T12:35:16.660Z,3.80
2023-05-08T12:41:04.182Z,3.80
2023-05-08T12:44:00.238Z,4.10
2023-05-08T12:46:29.502Z,4.07
2023-05-08T12:49:19.638Z,3.92
2023-05-08T12:51:47.911Z,3.95
2023-05-08T12:54:15.693Z,3.72
2023-05-08T12:56:55.271Z,3.65
2023-05-08T12:59:39.703Z,4.30
2023-05-08T13:02:39.507Z,4.03
2023-05-08T13:06:29.224Z,4.05
2023-05-08T13:11:44.256Z,4.00
2023-05-08T13:14:20.875Z,3.95
2023-05-08T13:17:02.184Z,3.92
2023-05-08T13:22:42.946Z,4.13
2023-05-08T13:28:24.817Z,3.80
2023-05-08T13:30:52.878Z,3.88
2023-05-08T13:33:19.978Z,3.78
2023-05-08T13:35:47.728Z,3.90
2023-05-08T13:38:30.470Z,3.92
2023-05-08T13:40:57.460Z,3.65
2023-05-08T13:43:30.961Z,3.90
2023-05-08T13:49:28.610Z,3.50
2023-05-08T13:51:57.456Z,3.70
2023-05-08T13:54:28.147Z,3.90
2023-05-08T14:03:13.266Z,3.38
2023-05-08T14:05:47.005Z,3.42
2023-05-08T14:08:25.295Z,3.72
2023-05-08T14:11:01.368Z,3.50
2023-05-08T14:13:29.052Z,3.30
2023-05-08T14:18:40.810Z,3.45
2023-05-08T14:24:05.239Z,3.20
2023-05-08T14:26:31.874Z,3.30
2023-05-08T14:28:58.570Z,3.50
2023-05-08T14:31:25.205Z,3.10
2023-05-08T14:33:51.877Z,3.45
2023-05-08T14:36:18.519Z,4.07
2023-05-08T14:38:45.184Z,3.38
2023-05-08T14:41:11.795Z,3.58
2023-05-08T14:43:38.652Z,3.35
2023-05-08T14:46:05.421Z,3.67
2023-05-08T14:48:32.080Z,3.25
2023-05-08T14:50:58.839Z,3.42
2023-05-08T14:53:25.621Z,3.25
2023-05-08T14:55:52.500Z,3.30
2023-05-08T14:58:19.335Z,3.30
2023-05-08T15:00:46.269Z,3.05
2023-05-08T15:03:13.014Z,3.10
2023-05-08T15:05:39.748Z,3.05
2023-05-08T15:08:06.456Z,3.10
2023-05-08T15:10:33.224Z,2.85
2023-05-08T15:12:59.898Z,3.42
2023-05-08T15:15:26.548Z,3.10
2023-05-08T15:17:53.290Z,3.00
2023-05-08T15:20:21.363Z,3.03
2023-05-08T15:22:48.006Z,2.85
2023-05-08T15:25:15.132Z,3.05
2023-05-08T15:27:42.041Z,3.38
2023-05-08T15:30:09.538Z,3.00
2023-05-08T15:32:36.317Z,2.95
2023-05-08T15:35:03.479Z,3.15
2023-05-08T15:37:30.101Z,2.92
2023-05-08T15:39:56.831Z,3.05
2023-05-08T15:42:23.476Z,3.00
2023-05-08T15:47:19.905Z,3.10
2023-05-08T15:49:46.633Z,2.90
2023-05-08T15:52:15.669Z,3.03
2023-05-08T15:54:42.302Z,2.85
2023-05-08T15:57:08.932Z,3.10
2023-05-08T15:59:37.810Z,2.90
2023-05-08T16:02:05.091Z,2.75
2023-05-08T16:04:31.926Z,3.00
2023-05-08T16:09:28.965Z,2.92
2023-05-08T16:14:22.787Z,2.95
2023-05-08T16:16:49.491Z,2.72
2023-05-08T16:19:16.224Z,3.10
2023-05-08T16:21:45.599Z,2.70
2023-05-08T16:24:12.272Z,2.75
2023-05-08T16:29:05.873Z,2.35
2023-05-08T16:31:32.584Z,2.50
2023-05-08T16:36:26.916Z,2.50
2023-05-08T16:43:48.158Z,2.40
2023-05-08T16:46:15.000Z,2.40
2023-05-08T16:48:42.485Z,2.53
2023-05-08T16:51:09.136Z,2.40
2023-05-08T16:53:35.766Z,2.30
2023-05-08T16:56:04.092Z,2.40
2023-05-08T16:58:30.768Z,2.50
2023-05-08T17:00:57.490Z,2.40
2023-05-08T17:03:24.337Z,2.30
2023-05-08T17:05:51.136Z,2.53
2023-05-08T17:08:17.914Z,2.50
2023-05-08T17:18:05.307Z,2.30
2023-05-08T17:20:32.016Z,2.22
2023-05-08T17:22:58.649Z,2.45
2023-05-08T17:25:25.342Z,2.38
2023-05-08T17:27:51.966Z,2.20
2023-05-08T17:30:18.706Z,2.58
2023-05-08T17:32:46.429Z,2.30
2023-05-08T17:35:13.409Z,2.80
2023-05-08T17:37:39.987Z,2.90
2023-05-08T17:40:07.123Z,3.00
2023-05-08T17:45:00.814Z,2.70
2023-05-08T17:47:28.656Z,2.90
2023-05-08T17:49:55.600Z,2.55
2023-05-08T17:52:22.233Z,2.90
2023-05-08T17:54:50.648Z,2.83
2023-05-08T17:59:44.184Z,2.97
2023-05-08T18:09:31.574Z,2.50
2023-05-08T18:12:02.501Z,2.78
2023-05-08T18:19:26.385Z,2.45
2023-05-08T18:21:53.080Z,2.63
2023-05-08T18:26:48.545Z,2.63
2023-05-08T18:31:42.832Z,2.47
2023-05-08T18:34:09.582Z,2.40
2023-05-08T18:39:03.824Z,2.55
2023-05-08T18:41:30.446Z,2.80
2023-05-08T18:43:57.124Z,2.70
2023-05-08T18:46:23.818Z,3.03
2023-05-08T18:48:50.529Z,3.08
2023-05-08T18:51:17.184Z,2.88
2023-05-08T18:53:43.847Z,2.88
2023-05-08T18:56:11.694Z,3.25
2023-05-08T18:58:38.470Z,3.17
2023-05-08T19:03:36.136Z,2.80
2023-05-08T19:08:29.916Z,2.83
2023-05-08T19:10:56.543Z,2.67
2023-05-08T19:13:23.345Z,3.00
2023-05-08T19:15:50.167Z,3.00
2023-05-08T19:18:18.256Z,3.10
2023-05-08T19:20:44.881Z,2.83
2023-05-08T19:25:38.498Z,3.33
2023-05-08T19:30:32.332Z,3.00
2023-05-08T19:32:58.998Z,3.30
2023-05-08T19:35:25.746Z,3.08
2023-05-08T19:45:13.531Z,3.45
2023-05-08T19:47:40.244Z,3.08
